createdAt,value
2022-11-24T00:01:15.658Z,95694.25
2022-11-24T00:03:44.073Z,95706.59
2022-11-24T00:06:12.610Z,95702.91
2022-11-24T00:08:40.686Z,95715.78
2022-11-24T00:11:10.095Z,95717.34
2022-11-24T00:13:39.003Z,95703.69
2022-11-24T00:16:14.726Z,95709.47
2022-11-24T00:18:42.864Z,95711.84
2022-11-24T00:21:10.061Z,95720.25
2022-11-24T00:23:37.267Z,95722.34
2022-11-24T00:26:10.703Z,95724.97
2022-11-24T00:28:38.244Z,95731.28
2022-11-24T00:31:16.978Z,95729.47
2022-11-24T00:33:44.130Z,95719.16
2022-11-24T00:36:10.492Z,95721.56
2022-11-24T00:38:36.925Z,95714.72
2022-11-24T00:41:03.436Z,95708.41
2022-11-24T00:43:29.798Z,95713.91
2022-11-24T00:45:56.252Z,95733.31
2022-11-24T00:48:22.862Z,95724.91
2022-11-24T00:51:03.624Z,95743.56
2022-11-24T00:53:30.390Z,95745.34
2022-11-24T00:55:56.852Z,95752.22
2022-11-24T00:58:24.951Z,95754.81
2022-11-24T01:00:52.102Z,95750.59
2022-11-24T01:03:20.647Z,95749.31
2022-11-24T01:05:47.277Z,95756.38
2022-11-24T01:08:13.779Z,95769.97
2022-11-24T01:10:40.190Z,95784.16
2022-11-24T01:13:06.599Z,95788.88
2022-11-24T01:15:36.168Z,95785.47
2022-11-24T01:18:04.016Z,95799.88
2022-11-24T01:20:30.767Z,95806.13
2022-11-24T01:22:57.165Z,95814.28
2022-11-24T01:25:23.589Z,95816.13
2022-11-24T01:27:49.988Z,95821.94
2022-11-24T01:30:16.560Z,95835.56
2022-11-24T01:32:42.899Z,95835.09
2022-11-24T01:35:09.487Z,95844.25
2022-11-24T01:37:35.961Z,95838.22
2022-11-24T01:40:02.414Z,95843.41
2022-11-24T01:42:39.784Z,95842.59
2022-11-24T01:45:30.978Z,95852.31
2022-11-24T01:47:58.035Z,95858.06
2022-11-24T01:50:24.910Z,95856.75
2022-11-24T01:52:56.650Z,95861.69
2022-11-24T01:55:28.473Z,95869.66
2022-11-24T01:58:13.062Z,95872.78
2022-11-24T02:00:42.703Z,95879.03
2022-11-24T02:03:10.383Z,95882.47
2022-11-24T02:06:02.295Z,95876.72
2022-11-24T02:08:40.846Z,95885.03
2022-11-24T02:11:07.230Z,95881.66
2022-11-24T02:13:36.752Z,95878.72
2022-11-24T02:16:05.062Z,95872.88
2022-11-24T02:18:31.494Z,95867.34
2022-11-24T02:20:59.371Z,95867.16
2022-11-24T02:24:01.147Z,95869.09
2022-11-24T02:27:00.028Z,95868.84
2022-11-24T02:29:26.462Z,95875.47
2022-11-24T02:31:59.182Z,95867.59
2022-11-24T02:34:25.551Z,95873.38
2022-11-24T02:36:51.918Z,95868.34
2022-11-24T02:39:18.449Z,95876.28
2022-11-24T02:41:52.128Z,95873.97
2022-11-24T02:44:21.930Z,95880.28
2022-11-24T02:46:48.454Z,95884.34
2022-11-24T02:49:16.116Z,95882.25
2022-11-24T02:51:42.530Z,95869.69
2022-11-24T02:54:08.914Z,95875.97
2022-11-24T02:56:35.331Z,95884.41
2022-11-24T02:59:01.689Z,95878.19
2022-11-24T03:01:28.158Z,95872.47
2022-11-24T03:03:54.548Z,95881.63
2022-11-24T03:06:20.968Z,95879.22
2022-11-24T03:08:47.337Z,95875.59
2022-11-24T03:11:13.683Z,95883.16
2022-11-24T03:13:40.108Z,95888.94
2022-11-24T03:16:10.249Z,95897.59
2022-11-24T03:18:36.687Z,95905.00
2022-11-24T03:21:03.175Z,95901.56
2022-11-24T03:23:29.523Z,95905.06
2022-11-24T03:26:05.913Z,95906.66
2022-11-24T03:28:32.332Z,95914.78
2022-11-24T03:30:58.842Z,95916.66
2022-11-24T03:33:25.248Z,95922.16
2022-11-24T03:35:51.612Z,95922.69
2022-11-24T03:38:17.989Z,95920.09
2022-11-24T03:40:44.351Z,95927.44
2022-11-24T03:43:10.721Z,95930.03
2022-11-24T03:45:52.381Z,95937.63
2022-11-24T03:48:21.143Z,95929.25
2022-11-24T03:50:56.127Z,95928.97
2022-11-24T03:53:23.663Z,95928.47
2022-11-24T03:55:50.071Z,95921.72
2022-11-24T03:58:16.536Z,95929.75
2022-11-24T04:00:42.926Z,95925.72
2022-11-24T04:03:09.455Z,95920.25
2022-11-24T04:05:36.401Z,95928.22
2022-11-24T04:08:05.206Z,95928.97
2022-11-24T04:10:33.308Z,95940.78
2022-11-24T04:12:59.719Z,95927.91
2022-11-24T04:15:26.055Z,95932.38
2022-11-24T04:17:54.898Z,95930.34
2022-11-24T04:20:21.410Z,95939.03
2022-11-24T04:22:50.600Z,95935.66
2022-11-24T04:25:17.393Z,95956.03
2022-11-24T04:27:44.088Z,95953.41
2022-11-24T04:30:10.618Z,95951.88
2022-11-24T04:32:37.050Z,95955.16
2022-11-24T04:35:04.395Z,95958.53
2022-11-24T04:37:30.850Z,95958.66
2022-11-24T04:39:57.223Z,95963.91
2022-11-24T04:42:23.583Z,95972.47
2022-11-24T04:44:50.172Z,95980.06
2022-11-24T04:47:24.686Z,95975.84
2022-11-24T04:49:51.548Z,95984.63
2022-11-24T04:52:19.777Z,95984.25
2022-11-24T04:54:47.046Z,95987.88
2022-11-24T04:57:18.254Z,95982.56
2022-11-24T04:59:44.699Z,95990.47
2022-11-24T05:02:11.371Z,95994.34
2022-11-24T05:04:38.241Z,95998.59
2022-11-24T05:07:05.521Z,96002.09
2022-11-24T05:09:48.177Z,95999.31
2022-11-24T05:12:18.199Z,96005.69
2022-11-24T05:14:44.551Z,96013.09
2022-11-24T05:17:10.997Z,96002.47
2022-11-24T05:19:37.356Z,96005.84
2022-11-24T05:22:03.808Z,95999.41
2022-11-24T05:24:30.273Z,95997.91
2022-11-24T05:26:56.677Z,96005.81
2022-11-24T05:29:23.016Z,96005.69
2022-11-24T05:31:49.507Z,96015.91
2022-11-24T05:34:15.874Z,96019.88
2022-11-24T05:36:54.402Z,96022.31
2022-11-24T05:39:21.163Z,96030.78
2022-11-24T05:41:47.557Z,96024.47
2022-11-24T05:44:13.922Z,96020.25
2022-11-24T05:46:40.369Z,96024.63
2022-11-24T05:49:06.780Z,96029.09
2022-11-24T05:51:33.414Z,96021.97
2022-11-24T05:53:59.782Z,96033.19
2022-11-24T05:56:26.131Z,96043.53
2022-11-24T05:58:52.564Z,96036.41
2022-11-24T06:01:18.935Z,96025.91
2022-11-24T06:03:45.326Z,96037.28
2022-11-24T06:06:11.687Z,96034.97
2022-11-24T06:08:38.089Z,96046.19
2022-11-24T06:11:19.426Z,96049.72
2022-11-24T06:13:48.432Z,96048.44
2022-11-24T06:16:15.419Z,96043.75
2022-11-24T06:18:42.073Z,96049.28
2022-11-24T06:21:11.229Z,96054.28
2022-11-24T06:23:38.532Z,96050.38
2022-11-24T06:26:05.043Z,96059.50
2022-11-24T06:28:31.519Z,96070.22
2022-11-24T06:31:05.096Z,96070.09
2022-11-24T06:33:36.096Z,96079.16
2022-11-24T06:36:05.094Z,96081.75
2022-11-24T06:38:31.807Z,96078.97
2022-11-24T06:41:02.547Z,96078.84
2022-11-24T06:43:30.098Z,96084.34
2022-11-24T06:45:57.352Z,96092.75
2022-11-24T06:48:24.409Z,96092.97
2022-11-24T06:50:51.083Z,96091.22
2022-11-24T06:53:17.662Z,96088.28
2022-11-24T06:55:45.020Z,96094.59
2022-11-24T06:58:11.479Z,96112.69
2022-11-24T07:00:38.736Z,96123.66
2022-11-24T07:03:05.290Z,96132.66
2022-11-24T07:05:31.668Z,96127.19
2022-11-24T07:08:01.599Z,96134.59
2022-11-24T07:10:28.036Z,96138.47
2022-11-24T07:12:54.413Z,96132.03
2022-11-24T07:15:20.803Z,96137.03
2022-11-24T07:17:47.168Z,96130.69
2022-11-24T07:20:13.552Z,96140.03
2022-11-24T07:22:39.917Z,96144.22
2022-11-24T07:25:09.537Z,96149.31
2022-11-24T07:27:36.389Z,96148.56
2022-11-24T07:30:03.594Z,96146.69
2022-11-24T07:32:30.019Z,96133.34
2022-11-24T07:34:56.404Z,96132.44
2022-11-24T07:37:25.590Z,96130.72
2022-11-24T07:39:56.084Z,96131.81
2022-11-24T07:42:22.427Z,96144.31
2022-11-24T07:44:48.827Z,96142.88
2022-11-24T07:47:15.213Z,96154.84
2022-11-24T07:49:41.591Z,96149.19
2022-11-24T07:52:08.179Z,96157.47
2022-11-24T07:54:34.822Z,96150.34
2022-11-24T07:57:01.396Z,96162.16
2022-11-24T07:59:27.736Z,96164.19
2022-11-24T08:01:54.141Z,96169.78
2022-11-24T08:04:20.600Z,96176.59
2022-11-24T08:06:47.644Z,96166.03
2022-11-24T08:09:14.206Z,96167.47
2022-11-24T08:11:40.540Z,96172.56
2022-11-24T08:14:06.912Z,96181.34
2022-11-24T08:16:33.366Z,96185.16
2022-11-24T08:18:59.799Z,96192.19
2022-11-24T08:21:26.300Z,96181.50
2022-11-24T08:23:57.278Z,96186.75
2022-11-24T08:26:24.989Z,96194.75
2022-11-24T08:28:58.765Z,96195.19
2022-11-24T08:31:32.385Z,96204.63
2022-11-24T08:33:59.567Z,96196.69
2022-11-24T08:36:25.966Z,96210.78
2022-11-24T08:38:57.169Z,96200.25
2022-11-24T08:41:24.649Z,96193.34
2022-11-24T08:43:51.465Z,96190.06
2022-11-24T08:46:19.101Z,96192.63
2022-11-24T08:48:53.025Z,96192.72
2022-11-24T08:51:25.045Z,96191.09
2022-11-24T08:53:55.748Z,96183.31
2022-11-24T08:56:22.407Z,96187.25
2022-11-24T08:58:48.874Z,96178.41
2022-11-24T09:01:16.997Z,96180.69
2022-11-24T09:03:50.404Z,96181.31
2022-11-24T09:06:23.495Z,96183.44
2022-11-24T09:08:50.159Z,96172.91
2022-11-24T09:11:17.176Z,96169.31
2022-11-24T09:13:43.867Z,96175.63
2022-11-24T09:16:18.221Z,96172.47
2022-11-24T09:18:44.718Z,96171.94
2022-11-24T09:21:16.636Z,96167.50
2022-11-24T09:23:43.940Z,96160.97
2022-11-24T09:26:14.033Z,96163.84
2022-11-24T09:28:41.276Z,96165.75
2022-11-24T09:31:10.739Z,96168.38
2022-11-24T09:33:38.311Z,96169.44
2022-11-24T09:36:05.774Z,96168.91
2022-11-24T09:38:32.292Z,96167.84
2022-11-24T09:41:17.526Z,96172.09
2022-11-24T09:43:58.648Z,96175.00
2022-11-24T09:46:35.246Z,96171.59
2022-11-24T09:49:04.536Z,96171.59
2022-11-24T09:51:33.584Z,96172.66
2022-11-24T09:54:06.008Z,96174.47
2022-11-24T09:56:35.023Z,96175.28
2022-11-24T09:59:14.570Z,96182.66
2022-11-24T10:01:42.829Z,96177.13
2022-11-24T10:04:22.439Z,96179.47
2022-11-24T10:07:02.663Z,96181.31
2022-11-24T10:09:50.086Z,96187.09
2022-11-24T10:12:39.099Z,96187.63
2022-11-24T10:15:25.333Z,96189.50
2022-11-24T10:17:57.727Z,96194.75
2022-11-24T10:20:36.220Z,96198.44
2022-11-24T10:23:27.429Z,96195.00
2022-11-24T10:25:57.527Z,96201.34
2022-11-24T10:28:32.213Z,96200.56
2022-11-24T10:31:29.955Z,96201.59
2022-11-24T10:34:03.316Z,96214.25
2022-11-24T10:36:43.685Z,96202.38
2022-11-24T10:39:35.753Z,96213.69
2022-11-24T10:42:10.108Z,96207.09
2022-11-24T10:44:36.583Z,96211.03
2022-11-24T10:47:03.589Z,96200.72
2022-11-24T10:49:33.595Z,96195.69
2022-11-24T10:52:16.475Z,96195.44
2022-11-24T10:54:55.995Z,96195.66
2022-11-24T10:57:48.850Z,96191.94
2022-11-24T11:00:18.185Z,96198.03
2022-11-24T11:02:45.981Z,96199.59
2022-11-24T11:05:27.580Z,96197.22
2022-11-24T11:08:16.050Z,96192.97
2022-11-24T11:10:44.031Z,96194.03
2022-11-24T11:13:30.340Z,96202.47
2022-11-24T11:15:58.659Z,96195.09
2022-11-24T11:18:31.806Z,96185.53
2022-11-24T11:21:04.161Z,96187.06
2022-11-24T11:23:36.146Z,96187.63
2022-11-24T11:26:21.690Z,96181.78
2022-11-24T11:31:15.288Z,96188.09
2022-11-24T11:34:44.158Z,96186.66
2022-11-24T11:37:14.415Z,96187.94
2022-11-24T11:40:16.071Z,96185.25
2022-11-24T11:43:02.511Z,96187.66
2022-11-24T11:45:36.440Z,96188.47
2022-11-24T11:48:03.132Z,96188.97
2022-11-24T11:51:14.780Z,96192.38
2022-11-24T11:53:46.358Z,96188.94
2022-11-24T11:56:24.839Z,96191.59
2022-11-24T11:59:00.299Z,96189.16
2022-11-24T12:01:51.591Z,96185.41
2022-11-24T12:04:20.913Z,96186.75
2022-11-24T12:06:53.294Z,96187.28
2022-11-24T12:09:28.971Z,96188.34
2022-11-24T12:12:21.583Z,96190.75
2022-11-24T12:14:51.129Z,96195.34
2022-11-24T12:18:05.954Z,96201.41
2022-11-24T12:20:46.403Z,96200.28
2022-11-24T12:23:18.861Z,96202.94
2022-11-24T12:25:58.423Z,96190.28
2022-11-24T12:28:35.515Z,96185.75
2022-11-24T12:31:05.749Z,96183.91
2022-11-24T12:34:22.018Z,96185.47
2022-11-24T12:37:01.391Z,96178.56
2022-11-24T12:39:51.919Z,96179.16
2022-11-24T12:42:50.386Z,96171.22
2022-11-24T12:45:22.601Z,96177.56
2022-11-24T12:48:12.194Z,96175.19
2022-11-24T12:50:40.800Z,96186.38
2022-11-24T12:53:22.013Z,96176.34
2022-11-24T12:55:48.634Z,96190.63
2022-11-24T12:58:36.156Z,96185.59
2022-11-24T13:01:16.703Z,96196.34
2022-11-24T13:03:58.688Z,96185.03
2022-11-24T13:06:33.685Z,96180.06
2022-11-24T13:09:08.120Z,96179.53
2022-11-24T13:11:46.139Z,96180.94
2022-11-24T13:14:22.567Z,96178.91
2022-11-24T13:19:48.177Z,96176.78
2022-11-24T13:22:18.736Z,96177.88
2022-11-24T13:24:45.297Z,96181.19
2022-11-24T13:27:19.656Z,96179.16
2022-11-24T13:29:48.082Z,96184.81
2022-11-24T13:32:14.479Z,96186.38
2022-11-24T13:34:41.070Z,96187.94
2022-11-24T13:37:31.652Z,96183.16
2022-11-24T13:40:22.716Z,96185.03
2022-11-24T13:43:00.283Z,96196.72
2022-11-24T13:45:39.599Z,96200.66
2022-11-24T13:48:22.554Z,96192.22
2022-11-24T13:50:53.974Z,96194.34
2022-11-24T13:53:33.386Z,96202.53
2022-11-24T13:56:02.861Z,96199.91
2022-11-24T13:58:44.369Z,96194.09
2022-11-24T14:01:28.337Z,96196.47
2022-11-24T14:04:30.988Z,96199.63
2022-11-24T14:07:07.900Z,96201.19
2022-11-24T14:09:44.710Z,96204.94
2022-11-24T14:12:15.558Z,96197.00
2022-11-24T14:14:44.330Z,96192.25
2022-11-24T14:17:14.523Z,96194.91
2022-11-24T14:19:42.765Z,96184.09
2022-11-24T14:22:18.735Z,96191.28
2022-11-24T14:24:50.986Z,96196.34
2022-11-24T14:27:20.045Z,96204.53
2022-11-24T14:29:58.219Z,96196.63
2022-11-24T14:32:24.749Z,96207.19
2022-11-24T14:34:52.152Z,96202.75
2022-11-24T14:37:21.598Z,96200.97
2022-11-24T14:39:48.039Z,96209.16
2022-11-24T14:42:17.295Z,96209.16
2022-11-24T14:44:49.051Z,96213.13
2022-11-24T14:47:31.292Z,96222.16
2022-11-24T14:50:23.908Z,96215.56
2022-11-24T14:52:55.809Z,96221.91
2022-11-24T14:55:31.243Z,96226.97
2022-11-24T14:57:58.904Z,96226.22
2022-11-24T15:00:28.611Z,96231.22
2022-11-24T15:03:13.521Z,96225.47
2022-11-24T15:05:58.356Z,96232.63
2022-11-24T15:08:27.400Z,96236.88
2022-11-24T15:11:00.387Z,96236.91
2022-11-24T15:13:28.179Z,96239.06
2022-11-24T15:16:02.938Z,96242.50
2022-11-24T15:18:35.928Z,96255.22
2022-11-24T15:21:03.018Z,96251.63
2022-11-24T15:23:33.804Z,96263.78
2022-11-24T15:26:03.060Z,96263.22
2022-11-24T15:28:30.821Z,96259.59
2022-11-24T15:31:06.470Z,96255.91
2022-11-24T15:33:33.178Z,96257.47
2022-11-24T15:35:59.807Z,96264.84
2022-11-24T15:38:26.309Z,96255.16
2022-11-24T15:40:55.086Z,96255.38
2022-11-24T15:43:31.802Z,96255.94
2022-11-24T15:45:58.986Z,96259.59
2022-11-24T15:48:25.591Z,96264.09
2022-11-24T15:50:53.245Z,96273.81
2022-11-24T15:53:34.170Z,96284.66
2022-11-24T15:56:02.514Z,96279.38
2022-11-24T15:58:28.871Z,96267.50
2022-11-24T16:00:55.337Z,96273.81
2022-11-24T16:06:15.869Z,96268.00
2022-11-24T16:08:46.020Z,96282.78
2022-11-24T16:11:12.519Z,96284.34
2022-11-24T16:13:39.010Z,96282.78
2022-11-24T16:16:05.858Z,96290.44
2022-11-24T16:18:32.283Z,96302.28
2022-11-24T16:20:58.742Z,96319.09
2022-11-24T16:23:25.161Z,96338.56
2022-11-24T16:25:51.839Z,96347.50
2022-11-24T16:28:18.402Z,96359.59
2022-11-24T16:30:49.399Z,96362.25
2022-11-24T16:33:16.024Z,96361.72
2022-11-24T16:35:42.452Z,96362.78
2022-11-24T16:38:17.877Z,96368.81
2022-11-24T16:40:44.605Z,96364.88
2022-11-24T16:43:10.997Z,96369.03
2022-11-24T16:45:40.813Z,96367.47
2022-11-24T16:48:10.227Z,96377.94
2022-11-24T16:50:37.547Z,96382.66
2022-11-24T16:53:03.917Z,96396.13
2022-11-24T16:55:30.252Z,96390.56
2022-11-24T16:57:56.609Z,96391.88
2022-11-24T17:00:23.231Z,96392.41
2022-11-24T17:02:49.688Z,96389.50
2022-11-24T17:05:16.424Z,96384.25
2022-11-24T17:07:42.892Z,96387.63
2022-11-24T17:10:09.618Z,96402.81
2022-11-24T17:12:36.665Z,96406.75
2022-11-24T17:15:30.888Z,96403.91
2022-11-24T17:18:22.391Z,96400.94
2022-11-24T17:20:36.837Z,96401.25
2022-11-24T17:23:03.214Z,96398.41
2022-11-24T17:25:29.571Z,96396.56
2022-11-24T17:27:55.935Z,96394.72
2022-11-24T17:30:22.288Z,96393.16
2022-11-24T17:32:51.248Z,96409.19
2022-11-24T17:35:21.616Z,96413.06
2022-11-24T17:37:47.973Z,96422.94
2022-11-24T17:40:34.292Z,96432.00
2022-11-24T17:43:01.085Z,96430.94
2022-11-24T17:45:28.756Z,96434.63
2022-11-24T17:47:56.117Z,96421.50
2022-11-24T17:50:26.056Z,96425.91
2022-11-24T17:52:53.094Z,96426.38
2022-11-24T17:55:19.515Z,96431.44
2022-11-24T17:57:45.914Z,96430.88
2022-11-24T18:00:12.967Z,96432.31
2022-11-24T18:02:39.406Z,96437.47
2022-11-24T18:05:06.040Z,96442.16
2022-11-24T18:07:34.712Z,96446.22
2022-11-24T18:10:01.139Z,96445.06
2022-11-24T18:12:27.510Z,96444.53
2022-11-24T18:14:53.939Z,96441.50
2022-11-24T18:17:20.342Z,96449.06
2022-11-24T18:19:46.732Z,96440.31
2022-11-24T18:22:13.094Z,96434.19
2022-11-24T18:24:39.790Z,96435.53
2022-11-24T18:27:06.435Z,96433.97
2022-11-24T18:29:32.850Z,96430.34
2022-11-24T18:31:59.321Z,96439.72
2022-11-24T18:34:25.798Z,96432.34
2022-11-24T18:36:52.645Z,96429.63
2022-11-24T18:39:19.273Z,96428.41
2022-11-24T18:41:46.666Z,96432.94
2022-11-24T18:44:13.139Z,96431.66
2022-11-24T18:46:39.517Z,96430.53
2022-11-24T18:49:07.108Z,96433.25
2022-11-24T18:51:33.875Z,96434.03
2022-11-24T18:54:02.052Z,96433.53
2022-11-24T18:56:29.118Z,96438.25
2022-11-24T18:58:56.457Z,96438.25
2022-11-24T19:01:25.204Z,96428.94
2022-11-24T19:03:54.553Z,96438.22
2022-11-24T19:06:26.847Z,96445.41
2022-11-24T19:08:54.918Z,96450.16
2022-11-24T19:11:29.172Z,96445.22
2022-11-24T19:13:56.649Z,96443.97
2022-11-24T19:16:24.036Z,96451.81
2022-11-24T19:18:54.264Z,96446.97
2022-11-24T19:21:21.421Z,96440.16
2022-11-24T19:23:47.857Z,96444.44
2022-11-24T19:26:14.260Z,96446.25
2022-11-24T19:28:40.735Z,96447.16
2022-11-24T19:31:10.695Z,96455.84
2022-11-24T19:33:37.332Z,96453.34
2022-11-24T19:36:07.194Z,96456.03
2022-11-24T19:38:35.064Z,96462.63
2022-11-24T19:41:02.278Z,96465.53
2022-11-24T19:43:28.919Z,96462.44
2022-11-24T19:46:00.719Z,96456.59
2022-11-24T19:48:30.870Z,96461.06
2022-11-24T19:51:01.467Z,96462.91
2022-11-24T19:53:28.459Z,96471.03
2022-11-24T19:55:54.892Z,96472.81
2022-11-24T19:58:21.344Z,96471.84
2022-11-24T20:00:47.753Z,96470.97
2022-11-24T20:03:14.469Z,96470.75
2022-11-24T20:05:40.888Z,96474.91
2022-11-24T20:08:07.283Z,96474.53
2022-11-24T20:10:33.653Z,96475.53
2022-11-24T20:13:00.077Z,96482.31
2022-11-24T20:15:26.424Z,96477.84
2022-11-24T20:17:52.812Z,96477.81
2022-11-24T20:20:19.260Z,96478.19
2022-11-24T20:22:45.645Z,96486.28
2022-11-24T20:25:12.008Z,96481.88
2022-11-24T20:27:38.403Z,96495.00
2022-11-24T20:30:05.578Z,96494.13
2022-11-24T20:32:31.967Z,96496.91
2022-11-24T20:34:58.358Z,96499.59
2022-11-24T20:37:25.818Z,96501.16
2022-11-24T20:39:52.292Z,96509.09
2022-11-24T20:42:18.690Z,96514.25
2022-11-24T20:44:45.090Z,96512.69
2022-11-24T20:47:11.459Z,96509.97
2022-11-24T20:49:37.858Z,96507.13
2022-11-24T20:52:04.545Z,96505.44
2022-11-24T20:54:31.042Z,96509.56
2022-11-24T20:56:57.376Z,96499.00
2022-11-24T20:59:25.050Z,96506.97
2022-11-24T21:01:55.123Z,96505.19
2022-11-24T21:04:25.447Z,96501.88
2022-11-24T21:06:52.135Z,96501.16
2022-11-24T21:09:19.001Z,96497.00
2022-11-24T21:11:45.865Z,96512.09
2022-11-24T21:14:12.855Z,96510.72
2022-11-24T21:16:41.371Z,96510.72
2022-11-24T21:19:11.668Z,96505.94
2022-11-24T21:21:39.171Z,96503.94
2022-11-24T21:24:13.898Z,96505.59
2022-11-24T21:26:41.954Z,96504.81
2022-11-24T21:29:08.520Z,96509.91
2022-11-24T21:31:37.047Z,96504.06
2022-11-24T21:34:05.041Z,96513.66
2022-11-24T21:36:34.002Z,96505.50
2022-11-24T21:39:02.008Z,96504.34
2022-11-24T21:41:29.416Z,96502.41
2022-11-24T21:43:55.968Z,96498.09
2022-11-24T21:46:22.980Z,96507.53
2022-11-24T21:48:49.644Z,96510.28
2022-11-24T21:51:19.255Z,96511.31
2022-11-24T21:53:46.582Z,96501.34
2022-11-24T21:56:16.860Z,96502.91
2022-11-24T21:58:48.125Z,96498.78
2022-11-24T22:01:16.014Z,96506.72
2022-11-24T22:03:42.841Z,96506.56
2022-11-24T22:06:09.403Z,96506.22
2022-11-24T22:08:36.941Z,96500.22
2022-11-24T22:11:12.125Z,96502.91
2022-11-24T22:13:38.922Z,96495.56
2022-11-24T22:16:17.314Z,96490.91
2022-11-24T22:18:44.734Z,96487.53
2022-11-24T22:21:18.979Z,96483.91
2022-11-24T22:23:45.517Z,96497.78
2022-11-24T22:26:14.322Z,96502.41
2022-11-24T22:28:41.087Z,96500.16
2022-11-24T22:31:10.635Z,96494.22
2022-11-24T22:33:37.147Z,96496.16
2022-11-24T22:36:04.140Z,96497.25
2022-11-24T22:38:31.580Z,96496.13
2022-11-24T22:41:05.998Z,96496.63
2022-11-24T22:43:33.755Z,96493.31
2022-11-24T22:46:27.140Z,96496.00
2022-11-24T22:48:54.801Z,96498.91
2022-11-24T22:51:26.861Z,96491.16
2022-11-24T22:53:55.598Z,96486.19
2022-11-24T22:56:22.442Z,96491.47
2022-11-24T22:58:48.983Z,96486.16
2022-11-24T23:01:18.186Z,96491.38
2022-11-24T23:03:45.298Z,96484.41
2022-11-24T23:06:14.470Z,96484.31
2022-11-24T23:08:41.234Z,96469.69
2022-11-24T23:11:29.735Z,96471.91
2022-11-24T23:14:00.330Z,96481.25
2022-11-24T23:16:26.986Z,96472.13
2022-11-24T23:18:54.211Z,96472.09
2022-11-24T23:21:29.019Z,96481.59
2022-11-24T23:23:56.266Z,96489.16
2022-11-24T23:26:31.540Z,96487.44
2022-11-24T23:28:58.077Z,96477.59
2022-11-24T23:31:28.543Z,96472.88
2022-11-24T23:33:56.957Z,96468.72
2022-11-24T23:36:23.379Z,96461.97
2022-11-24T23:38:49.841Z,96460.69
2022-11-24T23:41:19.054Z,96468.63
2022-11-24T23:43:45.549Z,96457.28
2022-11-24T23:46:17.943Z,96451.97
2022-11-24T23:48:44.512Z,96446.41
2022-11-24T23:51:24.882Z,96450.59
2022-11-24T23:53:52.098Z,96451.97
2022-11-24T23:56:21.049Z,96447.91
2022-11-24T23:58:47.566Z,96444.81
